sensor_id;sensor_type;location;lat;lon;timestamp;pressure;altitude;pressure_sealevel;temperature;humidity
57801;BME280;43627;42.728;23.256;2022-07-04T00:02:22;95221.97;;;20.61;70.59
57801;BME280;43627;42.728;23.256;2022-07-04T00:04:49;95225.50;;;20.61;70.52
57801;BME280;43627;42.728;23.256;2022-07-04T00:07:17;95228.56;;;20.58;70.14
57801;BME280;43627;42.728;23.256;2022-07-04T00:09:43;95231.63;;;20.54;70.90
57801;BME280;43627;42.728;23.256;2022-07-04T00:12:10;95240.22;;;20.50;70.06
57801;BME280;43627;42.728;23.256;2022-07-04T00:14:37;95229.22;;;20.45;70.36
57801;BME280;43627;42.728;23.256;2022-07-04T00:17:06;95238.50;;;20.47;70.57
57801;BME280;43627;42.728;23.256;2022-07-04T00:19:34;95247.03;;;20.49;69.45
57801;BME280;43627;42.728;23.256;2022-07-04T00:22:00;95223.50;;;20.37;70.05
57801;BME280;43627;42.728;23.256;2022-07-04T00:24:27;95238.25;;;20.45;69.81
57801;BME280;43627;42.728;23.256;2022-07-04T00:26:54;95225.50;;;20.37;69.98
57801;BME280;43627;42.728;23.256;2022-07-04T00:29:20;95235.31;;;20.38;70.11
57801;BME280;43627;42.728;23.256;2022-07-04T00:31:47;95222.97;;;20.39;68.89
57801;BME280;43627;42.728;23.256;2022-07-04T00:34:14;95223.50;;;20.37;69.20
57801;BME280;43627;42.728;23.256;2022-07-04T00:36:41;95206.53;;;20.22;68.72
57801;BME280;43627;42.728;23.256;2022-07-04T00:39:07;95213.44;;;20.34;67.60
57801;BME280;43627;42.728;23.256;2022-07-04T00:41:34;95214.94;;;20.35;67.40
57801;BME280;43627;42.728;23.256;2022-07-04T00:44:03;95216.00;;;20.32;67.89
57801;BME280;43627;42.728;23.256;2022-07-04T00:46:45;95222.56;;;20.29;67.27
57801;BME280;43627;42.728;23.256;2022-07-04T00:49:14;95217.53;;;20.27;66.96
57801;BME280;43627;42.728;23.256;2022-07-04T00:51:42;95214.00;;;20.27;66.12
57801;BME280;43627;42.728;23.256;2022-07-04T00:54:11;95208.81;;;20.18;66.98
57801;BME280;43627;42.728;23.256;2022-07-04T00:56:42;95214.84;;;20.22;67.62
57801;BME280;43627;42.728;23.256;2022-07-04T00:59:10;95215.00;;;20.05;67.93
57801;BME280;43627;42.728;23.256;2022-07-04T01:01:37;95197.66;;;20.05;67.26
57801;BME280;43627;42.728;23.256;2022-07-04T01:04:05;95216.56;;;20.01;68.01
57801;BME280;43627;42.728;23.256;2022-07-04T01:06:33;95211.81;;;19.95;67.87
57801;BME280;43627;42.728;23.256;2022-07-04T01:09:00;95222.84;;;20.01;68.42
57801;BME280;43627;42.728;23.256;2022-07-04T01:11:27;95209.81;;;19.96;67.78
57801;BME280;43627;42.728;23.256;2022-07-04T01:13:54;95220.94;;;19.90;68.15
57801;BME280;43627;42.728;23.256;2022-07-04T01:16:21;95215.91;;;19.89;67.94
57801;BME280;43627;42.728;23.256;2022-07-04T01:18:47;95214.72;;;19.84;67.73
57801;BME280;43627;42.728;23.256;2022-07-04T01:21:14;95217.69;;;19.86;67.50
57801;BME280;43627;42.728;23.256;2022-07-04T01:23:41;95216.44;;;19.87;66.94
57801;BME280;43627;42.728;23.256;2022-07-04T01:26:08;95220.19;;;19.90;67.43
57801;BME280;43627;42.728;23.256;2022-07-04T01:28:35;95216.25;;;19.80;67.78
57801;BME280;43627;42.728;23.256;2022-07-04T01:31:02;95217.00;;;19.80;67.94
57801;BME280;43627;42.728;23.256;2022-07-04T01:33:29;95219.06;;;19.74;69.81
57801;BME280;43627;42.728;23.256;2022-07-04T01:35:56;95217.50;;;19.79;68.66
57801;BME280;43627;42.728;23.256;2022-07-04T01:38:23;95222.03;;;19.82;69.18
57801;BME280;43627;42.728;23.256;2022-07-04T01:40:49;95217.56;;;19.73;70.11
57801;BME280;43627;42.728;23.256;2022-07-04T01:43:16;95231.13;;;19.77;66.74
57801;BME280;43627;42.728;23.256;2022-07-04T01:45:43;95235.16;;;19.76;66.90
57801;BME280;43627;42.728;23.256;2022-07-04T01:48:11;95225.66;;;19.71;67.69
57801;BME280;43627;42.728;23.256;2022-07-04T01:50:39;95222.50;;;19.56;68.15
57801;BME280;43627;42.728;23.256;2022-07-04T01:53:06;95220.44;;;19.62;69.87
57801;BME280;43627;42.728;23.256;2022-07-04T01:55:33;95211.88;;;19.60;68.46
57801;BME280;43627;42.728;23.256;2022-07-04T01:58:00;95213.41;;;19.55;67.80
57801;BME280;43627;42.728;23.256;2022-07-04T02:00:27;95225.22;;;19.61;69.26
57801;BME280;43627;42.728;23.256;2022-07-04T02:03:12;95218.88;;;19.66;70.24
57801;BME280;43627;42.728;23.256;2022-07-04T02:05:39;95226.00;;;19.56;68.59
57801;BME280;43627;42.728;23.256;2022-07-04T02:08:07;95227.28;;;19.50;66.27
57801;BME280;43627;42.728;23.256;2022-07-04T02:10:34;95235.31;;;19.53;66.27
57801;BME280;43627;42.728;23.256;2022-07-04T02:13:01;95232.78;;;19.55;65.73
57801;BME280;43627;42.728;23.256;2022-07-04T02:15:35;95232.78;;;19.55;66.69
57801;BME280;43627;42.728;23.256;2022-07-04T02:18:03;95233.84;;;19.47;69.04
57801;BME280;43627;42.728;23.256;2022-07-04T02:20:31;95233.09;;;19.46;69.07
57801;BME280;43627;42.728;23.256;2022-07-04T02:22:58;95233.09;;;19.46;67.27
57801;BME280;43627;42.728;23.256;2022-07-04T02:25:25;95230.84;;;19.45;77.60
57801;BME280;43627;42.728;23.256;2022-07-04T02:27:52;95236.38;;;19.45;81.07
57801;BME280;43627;42.728;23.256;2022-07-04T02:30:19;95236.19;;;19.37;84.50
57801;BME280;43627;42.728;23.256;2022-07-04T02:32:46;95229.16;;;19.36;87.38
57801;BME280;43627;42.728;23.256;2022-07-04T02:35:13;95232.47;;;19.29;91.75
57801;BME280;43627;42.728;23.256;2022-07-04T02:37:40;95227.69;;;19.29;88.01
57801;BME280;43627;42.728;23.256;2022-07-04T02:40:07;95227.22;;;19.25;81.87
57801;BME280;43627;42.728;23.256;2022-07-04T02:42:35;95228.47;;;19.24;78.69
57801;BME280;43627;42.728;23.256;2022-07-04T02:45:04;95232.53;;;19.18;76.47
57801;BME280;43627;42.728;23.256;2022-07-04T02:47:30;95237.78;;;19.21;74.29
57801;BME280;43627;42.728;23.256;2022-07-04T02:49:57;95233.28;;;19.18;78.61
57801;BME280;43627;42.728;23.256;2022-07-04T02:52:24;95236.56;;;19.17;73.74
57801;BME280;43627;42.728;23.256;2022-07-04T02:54:50;95248.59;;;19.19;69.77
57801;BME280;43627;42.728;23.256;2022-07-04T02:57:19;95248.59;;;19.19;72.46
57801;BME280;43627;42.728;23.256;2022-07-04T02:59:46;95252.31;;;19.27;75.56
57801;BME280;43627;42.728;23.256;2022-07-04T03:02:13;95248.06;;;19.26;77.77
57801;BME280;43627;42.728;23.256;2022-07-04T03:04:40;95256.16;;;19.13;82.77
57801;BME280;43627;42.728;23.256;2022-07-04T03:07:07;95253.69;;;19.04;85.86
57801;BME280;43627;42.728;23.256;2022-07-04T03:09:34;95254.50;;;18.93;86.73
57801;BME280;43627;42.728;23.256;2022-07-04T03:12:01;95257.53;;;18.95;88.09
57801;BME280;43627;42.728;23.256;2022-07-04T03:14:28;95261.06;;;18.96;89.49
57801;BME280;43627;42.728;23.256;2022-07-04T03:16:55;95249.22;;;19.01;88.95
57801;BME280;43627;42.728;23.256;2022-07-04T03:19:22;95253.09;;;18.75;91.09
57801;BME280;43627;42.728;23.256;2022-07-04T03:21:48;95259.41;;;18.70;91.96
57801;BME280;43627;42.728;23.256;2022-07-04T03:24:15;95261.44;;;18.47;93.77
57801;BME280;43627;42.728;23.256;2022-07-04T03:26:42;95272.75;;;18.49;94.58
57801;BME280;43627;42.728;23.256;2022-07-04T03:29:09;95272.44;;;18.64;94.27
57801;BME280;43627;42.728;23.256;2022-07-04T03:31:35;95261.41;;;18.70;92.74
57801;BME280;43627;42.728;23.256;2022-07-04T03:34:03;95259.81;;;18.86;92.11
57801;BME280;43627;42.728;23.256;2022-07-04T03:36:30;95260.25;;;19.06;90.42
57801;BME280;43627;42.728;23.256;2022-07-04T03:38:56;95251.28;;;19.36;85.95
57801;BME280;43627;42.728;23.256;2022-07-04T03:41:23;95270.66;;;19.72;83.60
57801;BME280;43627;42.728;23.256;2022-07-04T03:43:50;95274.25;;;20.21;79.74
57801;BME280;43627;42.728;23.256;2022-07-04T03:46:16;95269.53;;;20.65;75.83
57801;BME280;43627;42.728;23.256;2022-07-04T03:48:43;95268.16;;;20.77;73.75
57801;BME280;43627;42.728;23.256;2022-07-04T03:51:13;95247.13;;;21.06;70.83
57801;BME280;43627;42.728;23.256;2022-07-04T03:53:41;95263.06;;;21.56;68.71
57801;BME280;43627;42.728;23.256;2022-07-04T03:56:08;95257.47;;;22.07;66.27
57801;BME280;43627;42.728;23.256;2022-07-04T03:58:35;95265.88;;;22.60;64.75
57801;BME280;43627;42.728;23.256;2022-07-04T04:01:02;95267.66;;;23.11;60.98
57801;BME280;43627;42.728;23.256;2022-07-04T04:03:29;95262.75;;;23.51;58.82
57801;BME280;43627;42.728;23.256;2022-07-04T04:06:14;95262.47;;;23.41;57.86
57801;BME280;43627;42.728;23.256;2022-07-04T04:08:41;95263.06;;;23.13;58.92
57801;BME280;43627;42.728;23.256;2022-07-04T04:11:08;95271.81;;;23.17;58.69
57801;BME280;43627;42.728;23.256;2022-07-04T04:13:35;95268.88;;;23.36;57.46
57801;BME280;43627;42.728;23.256;2022-07-04T04:16:01;95262.56;;;23.35;57.89
57801;BME280;43627;42.728;23.256;2022-07-04T04:18:28;95259.72;;;23.49;57.24
57801;BME280;43627;42.728;23.256;2022-07-04T04:20:55;95267.88;;;23.60;55.98
57801;BME280;43627;42.728;23.256;2022-07-04T04:23:22;95272.97;;;23.69;56.02
57801;BME280;43627;42.728;23.256;2022-07-04T04:25:48;95269.91;;;24.22;55.08
57801;BME280;43627;42.728;23.256;2022-07-04T04:28:22;95269.47;;;24.60;52.29
57801;BME280;43627;42.728;23.256;2022-07-04T04:30:50;95254.63;;;24.36;53.00
57801;BME280;43627;42.728;23.256;2022-07-04T04:33:16;95275.09;;;24.39;54.15
57801;BME280;43627;42.728;23.256;2022-07-04T04:35:43;95271.78;;;24.76;52.58
57801;BME280;43627;42.728;23.256;2022-07-04T04:38:10;95280.91;;;25.49;51.14
57801;BME280;43627;42.728;23.256;2022-07-04T04:40:37;95266.09;;;25.85;49.45
57801;BME280;43627;42.728;23.256;2022-07-04T04:43:03;95274.13;;;26.50;47.49
57801;BME280;43627;42.728;23.256;2022-07-04T04:45:30;95276.75;;;26.63;47.34
57801;BME280;43627;42.728;23.256;2022-07-04T04:47:57;95275.03;;;26.67;46.76
57801;BME280;43627;42.728;23.256;2022-07-04T04:50:23;95271.34;;;26.65;45.99
57801;BME280;43627;42.728;23.256;2022-07-04T04:52:50;95280.06;;;26.76;46.03
57801;BME280;43627;42.728;23.256;2022-07-04T04:55:17;95280.63;;;26.83;47.17
57801;BME280;43627;42.728;23.256;2022-07-04T04:57:44;95275.22;;;26.77;46.11
57801;BME280;43627;42.728;23.256;2022-07-04T05:00:11;95267.25;;;26.51;46.70
57801;BME280;43627;42.728;23.256;2022-07-04T05:02:37;95286.25;;;26.37;46.39
57801;BME280;43627;42.728;23.256;2022-07-04T05:05:05;95280.81;;;26.01;46.87
57801;BME280;43627;42.728;23.256;2022-07-04T05:07:32;95284.69;;;25.75;47.55
57801;BME280;43627;42.728;23.256;2022-07-04T05:10:00;95275.09;;;25.47;47.75
57801;BME280;43627;42.728;23.256;2022-07-04T05:12:27;95268.84;;;25.70;47.69
57801;BME280;43627;42.728;23.256;2022-07-04T05:14:55;95279.16;;;26.13;44.77
57801;BME280;43627;42.728;23.256;2022-07-04T05:17:22;95273.94;;;26.09;45.22
57801;BME280;43627;42.728;23.256;2022-07-04T05:19:49;95274.31;;;26.29;45.41
57801;BME280;43627;42.728;23.256;2022-07-04T05:22:16;95271.69;;;26.31;45.87
57801;BME280;43627;42.728;23.256;2022-07-04T05:24:43;95271.31;;;25.96;47.69
57801;BME280;43627;42.728;23.256;2022-07-04T05:27:10;95280.09;;;26.08;47.69
57801;BME280;43627;42.728;23.256;2022-07-04T05:29:37;95272.47;;;26.16;46.36
57801;BME280;43627;42.728;23.256;2022-07-04T05:32:05;95268.53;;;26.11;46.94
57801;BME280;43627;42.728;23.256;2022-07-04T05:34:32;95275.25;;;26.01;46.58
57801;BME280;43627;42.728;23.256;2022-07-04T05:37:00;95272.81;;;26.12;46.81
57801;BME280;43627;42.728;23.256;2022-07-04T05:39:27;95276.53;;;26.30;46.49
57801;BME280;43627;42.728;23.256;2022-07-04T05:41:54;95282.13;;;26.23;45.93
57801;BME280;43627;42.728;23.256;2022-07-04T05:44:20;95281.03;;;26.26;46.67
57801;BME280;43627;42.728;23.256;2022-07-04T05:46:47;95273.22;;;26.39;45.99
57801;BME280;43627;42.728;23.256;2022-07-04T05:49:14;95276.16;;;26.34;45.28
57801;BME280;43627;42.728;23.256;2022-07-04T05:51:41;95275.03;;;26.75;44.47
57801;BME280;43627;42.728;23.256;2022-07-04T05:54:07;95274.47;;;26.76;44.20
57801;BME280;43627;42.728;23.256;2022-07-04T05:56:34;95280.47;;;26.50;44.54
57801;BME280;43627;42.728;23.256;2022-07-04T05:59:01;95275.44;;;26.41;43.91
57801;BME280;43627;42.728;23.256;2022-07-04T06:01:28;95266.31;;;26.40;44.26
57801;BME280;43627;42.728;23.256;2022-07-04T06:03:54;95278.41;;;26.35;45.27
57801;BME280;43627;42.728;23.256;2022-07-04T06:06:21;95262.72;;;26.70;43.03
57801;BME280;43627;42.728;23.256;2022-07-04T06:08:48;95272.41;;;26.85;41.39
57801;BME280;43627;42.728;23.256;2022-07-04T06:11:14;95275.03;;;26.75;42.71
57801;BME280;43627;42.728;23.256;2022-07-04T06:13:44;95279.16;;;26.36;42.91
57801;BME280;43627;42.728;23.256;2022-07-04T06:16:10;95273.22;;;26.16;44.27
57801;BME280;43627;42.728;23.256;2022-07-04T06:18:37;95277.31;;;26.46;43.94
57801;BME280;43627;42.728;23.256;2022-07-04T06:21:04;95273.56;;;26.20;43.32
57801;BME280;43627;42.728;23.256;2022-07-04T06:23:30;95283.06;;;26.17;43.91
57801;BME280;43627;42.728;23.256;2022-07-04T06:25:57;95270.78;;;26.43;41.29
57801;BME280;43627;42.728;23.256;2022-07-04T06:28:24;95281.38;;;26.75;40.59
57801;BME280;43627;42.728;23.256;2022-07-04T06:31:11;95271.00;;;27.24;40.49
57801;BME280;43627;42.728;23.256;2022-07-04T06:33:38;95263.00;;;27.20;41.57
57801;BME280;43627;42.728;23.256;2022-07-04T06:36:24;95267.66;;;27.18;42.41
57801;BME280;43627;42.728;23.256;2022-07-04T06:38:51;95265.59;;;27.18;40.69
57801;BME280;43627;42.728;23.256;2022-07-04T06:41:17;95268.22;;;27.16;39.54
57801;BME280;43627;42.728;23.256;2022-07-04T06:43:44;95266.31;;;27.26;39.67
57801;BME280;43627;42.728;23.256;2022-07-04T06:46:11;95264.13;;;27.10;40.00
57801;BME280;43627;42.728;23.256;2022-07-04T06:48:38;95264.91;;;27.10;40.27
57801;BME280;43627;42.728;23.256;2022-07-04T06:51:04;95254.63;;;27.13;40.50
57801;BME280;43627;42.728;23.256;2022-07-04T06:53:31;95262.47;;;27.07;39.12
57801;BME280;43627;42.728;23.256;2022-07-04T06:55:58;95246.56;;;27.17;40.63
57801;BME280;43627;42.728;23.256;2022-07-04T06:58:25;95250.09;;;27.25;42.94
57801;BME280;43627;42.728;23.256;2022-07-04T07:00:52;95253.72;;;27.10;43.06
57801;BME280;43627;42.728;23.256;2022-07-04T07:03:19;95255.13;;;27.26;41.90
57801;BME280;43627;42.728;23.256;2022-07-04T07:05:46;95254.88;;;27.40;39.38
57801;BME280;43627;42.728;23.256;2022-07-04T07:08:28;95247.41;;;27.42;39.00
57801;BME280;43627;42.728;23.256;2022-07-04T07:10:56;95250.13;;;27.57;39.13
57801;BME280;43627;42.728;23.256;2022-07-04T07:13:23;95254.97;;;27.57;40.08
57801;BME280;43627;42.728;23.256;2022-07-04T07:15:50;95241.97;;;27.04;39.35
57801;BME280;43627;42.728;23.256;2022-07-04T07:18:17;95247.94;;;27.48;39.42
57801;BME280;43627;42.728;23.256;2022-07-04T07:20:43;95246.97;;;27.53;37.85
57801;BME280;43627;42.728;23.256;2022-07-04T07:23:10;95223.72;;;27.36;40.03
57801;BME280;43627;42.728;23.256;2022-07-04T07:25:37;95248.66;;;27.09;40.53
57801;BME280;43627;42.728;23.256;2022-07-04T07:28:04;95241.56;;;27.48;39.79
57801;BME280;43627;42.728;23.256;2022-07-04T07:30:31;95242.03;;;27.69;40.06
57801;BME280;43627;42.728;23.256;2022-07-04T07:32:57;95234.06;;;27.58;40.05
57801;BME280;43627;42.728;23.256;2022-07-04T07:35:24;95243.72;;;27.65;40.05
57801;BME280;43627;42.728;23.256;2022-07-04T07:37:51;95247.06;;;26.83;41.18
57801;BME280;43627;42.728;23.256;2022-07-04T07:40:18;95229.28;;;27.03;41.37
57801;BME280;43627;42.728;23.256;2022-07-04T07:42:44;95232.66;;;26.86;40.79
57801;BME280;43627;42.728;23.256;2022-07-04T07:45:11;95241.22;;;27.44;41.48
57801;BME280;43627;42.728;23.256;2022-07-04T07:47:38;95240.44;;;27.83;40.74
57801;BME280;43627;42.728;23.256;2022-07-04T07:50:05;95229.53;;;28.20;38.85
57801;BME280;43627;42.728;23.256;2022-07-04T07:52:32;95230.69;;;28.59;38.61
57801;BME280;43627;42.728;23.256;2022-07-04T07:54:59;95232.44;;;29.07;38.12
57801;BME280;43627;42.728;23.256;2022-07-04T07:57:27;95219.78;;;29.15;38.67
57801;BME280;43627;42.728;23.256;2022-07-04T07:59:54;95216.81;;;29.30;37.88
57801;BME280;43627;42.728;23.256;2022-07-04T08:02:21;95205.63;;;29.40;37.32
57801;BME280;43627;42.728;23.256;2022-07-04T08:05:08;95224.44;;;29.74;37.13
57801;BME280;43627;42.728;23.256;2022-07-04T08:07:36;95227.75;;;29.36;36.39
57801;BME280;43627;42.728;23.256;2022-07-04T08:10:03;95227.75;;;29.53;36.22
57801;BME280;43627;42.728;23.256;2022-07-04T08:12:30;95228.88;;;29.23;36.72
57801;BME280;43627;42.728;23.256;2022-07-04T08:14:57;95216.75;;;28.86;36.94
57801;BME280;43627;42.728;23.256;2022-07-04T08:17:31;95215.25;;;28.68;37.54
57801;BME280;43627;42.728;23.256;2022-07-04T08:19:58;95213.72;;;28.92;37.60
57801;BME280;43627;42.728;23.256;2022-07-04T08:22:25;95226.00;;;28.96;37.46
57801;BME280;43627;42.728;23.256;2022-07-04T08:24:51;95215.44;;;29.05;37.34
57801;BME280;43627;42.728;23.256;2022-07-04T08:27:19;95201.03;;;29.18;37.07
57801;BME280;43627;42.728;23.256;2022-07-04T08:29:57;95201.53;;;29.24;37.47
57801;BME280;43627;42.728;23.256;2022-07-04T08:32:23;95195.53;;;29.10;36.77
57801;BME280;43627;42.728;23.256;2022-07-04T08:34:50;95206.91;;;29.29;37.54
57801;BME280;43627;42.728;23.256;2022-07-04T08:37:17;95193.72;;;29.49;36.42
57801;BME280;43627;42.728;23.256;2022-07-04T08:39:44;95206.75;;;29.54;36.49
57801;BME280;43627;42.728;23.256;2022-07-04T08:42:15;95204.69;;;29.55;37.57
57801;BME280;43627;42.728;23.256;2022-07-04T08:44:50;95203.78;;;29.52;37.14
57801;BME280;43627;42.728;23.256;2022-07-04T08:47:18;95201.47;;;29.58;37.13
57801;BME280;43627;42.728;23.256;2022-07-04T08:49:58;95202.31;;;29.51;36.74
57801;BME280;43627;42.728;23.256;2022-07-04T08:52:58;95192.13;;;29.29;37.84
57801;BME280;43627;42.728;23.256;2022-07-04T08:55:23;95207.66;;;29.13;38.81
57801;BME280;43627;42.728;23.256;2022-07-04T08:58:08;95186.63;;;29.04;38.71
57801;BME280;43627;42.728;23.256;2022-07-04T09:03:28;95194.28;;;29.48;38.03
57801;BME280;43627;42.728;23.256;2022-07-04T09:05:55;95206.94;;;29.39;38.19
57801;BME280;43627;42.728;23.256;2022-07-04T09:08:23;95185.16;;;29.30;38.43
57801;BME280;43627;42.728;23.256;2022-07-04T09:10:51;95186.69;;;29.41;38.49
57801;BME280;43627;42.728;23.256;2022-07-04T09:13:19;95197.03;;;29.65;38.14
57801;BME280;43627;42.728;23.256;2022-07-04T09:15:48;95196.94;;;29.73;37.78
57801;BME280;43627;42.728;23.256;2022-07-04T09:20:46;95190.88;;;29.67;39.58
57801;BME280;43627;42.728;23.256;2022-07-04T09:23:39;95198.59;;;29.76;39.31
57801;BME280;43627;42.728;23.256;2022-07-04T09:28:45;95174.22;;;29.88;38.12
57801;BME280;43627;42.728;23.256;2022-07-04T09:33:54;95194.19;;;29.28;37.44
57801;BME280;43627;42.728;23.256;2022-07-04T09:36:24;95179.56;;;29.30;38.15
57801;BME280;43627;42.728;23.256;2022-07-04T09:39:13;95173.66;;;29.63;37.11
57801;BME280;43627;42.728;23.256;2022-07-04T09:44:18;95173.81;;;29.65;36.71
57801;BME280;43627;42.728;23.256;2022-07-04T09:46:46;95175.78;;;29.72;37.10
57801;BME280;43627;42.728;23.256;2022-07-04T09:49:12;95159.31;;;29.95;36.96
57801;BME280;43627;42.728;23.256;2022-07-04T09:51:42;95168.00;;;30.26;36.67
57801;BME280;43627;42.728;23.256;2022-07-04T09:56:43;95159.81;;;30.21;35.95
57801;BME280;43627;42.728;23.256;2022-07-04T09:59:10;95163.91;;;30.00;36.05
57801;BME280;43627;42.728;23.256;2022-07-04T10:01:37;95157.44;;;30.07;35.23
57801;BME280;43627;42.728;23.256;2022-07-04T10:04:06;95163.41;;;30.40;35.64
57801;BME280;43627;42.728;23.256;2022-07-04T10:06:37;95158.81;;;30.35;36.26
57801;BME280;43627;42.728;23.256;2022-07-04T10:09:22;95163.38;;;29.75;37.02
57801;BME280;43627;42.728;23.256;2022-07-04T10:11:49;95168.09;;;30.09;37.13
57801;BME280;43627;42.728;23.256;2022-07-04T10:14:16;95164.72;;;30.20;35.76
57801;BME280;43627;42.728;23.256;2022-07-04T10:16:43;95159.56;;;30.36;35.79
57801;BME280;43627;42.728;23.256;2022-07-04T10:19:10;95129.22;;;30.44;35.09
57801;BME280;43627;42.728;23.256;2022-07-04T10:21:39;95162.28;;;30.92;34.99
57801;BME280;43627;42.728;23.256;2022-07-04T10:24:06;95159.47;;;30.92;34.75
57801;BME280;43627;42.728;23.256;2022-07-04T10:26:33;95146.84;;;30.54;34.96
57801;BME280;43627;42.728;23.256;2022-07-04T10:29:00;95145.25;;;30.80;35.72
57801;BME280;43627;42.728;23.256;2022-07-04T10:31:29;95149.22;;;30.77;35.54
57801;BME280;43627;42.728;23.256;2022-07-04T10:33:57;95139.88;;;30.55;36.02
57801;BME280;43627;42.728;23.256;2022-07-04T10:36:26;95137.53;;;30.81;38.36
57801;BME280;43627;42.728;23.256;2022-07-04T10:39:02;95146.72;;;30.72;35.59
57801;BME280;43627;42.728;23.256;2022-07-04T10:41:30;95148.94;;;30.63;35.97
57801;BME280;43627;42.728;23.256;2022-07-04T10:43:59;95144.34;;;30.78;36.04
57801;BME280;43627;42.728;23.256;2022-07-04T10:46:34;95129.09;;;30.71;35.66
57801;BME280;43627;42.728;23.256;2022-07-04T10:49:20;95135.28;;;30.98;35.67
57801;BME280;43627;42.728;23.256;2022-07-04T10:51:48;95138.88;;;30.89;35.32
57801;BME280;43627;42.728;23.256;2022-07-04T10:54:19;95130.56;;;30.62;36.65
57801;BME280;43627;42.728;23.256;2022-07-04T10:59:17;95121.41;;;30.72;36.30
57801;BME280;43627;42.728;23.256;2022-07-04T11:01:45;95131.56;;;30.96;36.57
57801;BME280;43627;42.728;23.256;2022-07-04T11:17:52;95117.03;;;31.29;34.57
57801;BME280;43627;42.728;23.256;2022-07-04T11:20:19;95117.06;;;31.60;35.35
57801;BME280;43627;42.728;23.256;2022-07-04T11:22:46;95109.53;;;31.43;35.85
57801;BME280;43627;42.728;23.256;2022-07-04T11:25:13;95125.88;;;31.35;35.80
57801;BME280;43627;42.728;23.256;2022-07-04T11:27:41;95122.97;;;31.64;34.81
57801;BME280;43627;42.728;23.256;2022-07-04T11:30:08;95120.81;;;31.43;35.38
57801;BME280;43627;42.728;23.256;2022-07-04T11:32:40;95111.50;;;31.71;34.93
57801;BME280;43627;42.728;23.256;2022-07-04T11:35:09;95112.34;;;31.83;34.86
57801;BME280;43627;42.728;23.256;2022-07-04T11:37:36;95100.38;;;32.26;34.55
57801;BME280;43627;42.728;23.256;2022-07-04T11:40:04;95095.97;;;32.23;35.74
57801;BME280;43627;42.728;23.256;2022-07-04T11:43:07;95088.56;;;32.18;34.60
57801;BME280;43627;42.728;23.256;2022-07-04T11:45:53;95091.94;;;31.33;35.50
57801;BME280;43627;42.728;23.256;2022-07-04T11:48:27;95094.69;;;30.92;36.71
57801;BME280;43627;42.728;23.256;2022-07-04T11:50:54;95085.03;;;31.05;36.49
57801;BME280;43627;42.728;23.256;2022-07-04T11:53:21;95075.59;;;30.90;36.27
57801;BME280;43627;42.728;23.256;2022-07-04T11:55:56;95073.66;;;30.93;37.03
57801;BME280;43627;42.728;23.256;2022-07-04T11:58:39;95076.16;;;31.08;36.44
57801;BME280;43627;42.728;23.256;2022-07-04T12:01:06;95068.22;;;31.67;35.27
57801;BME280;43627;42.728;23.256;2022-07-04T12:03:33;95061.22;;;31.99;34.80
57801;BME280;43627;42.728;23.256;2022-07-04T12:06:01;95060.41;;;32.29;34.75
57801;BME280;43627;42.728;23.256;2022-07-04T12:08:28;95065.44;;;32.52;34.63
57801;BME280;43627;42.728;23.256;2022-07-04T12:10:55;95056.06;;;32.17;34.80
57801;BME280;43627;42.728;23.256;2022-07-04T12:13:22;95050.09;;;31.70;35.59
57801;BME280;43627;42.728;23.256;2022-07-04T12:15:50;95047.44;;;31.93;34.51
57801;BME280;43627;42.728;23.256;2022-07-04T12:18:21;95048.00;;;32.23;33.93
57801;BME280;43627;42.728;23.256;2022-07-04T12:20:49;95041.88;;;32.59;34.62
57801;BME280;43627;42.728;23.256;2022-07-04T12:23:19;95045.91;;;32.45;34.31
57801;BME280;43627;42.728;23.256;2022-07-04T12:25:48;95048.88;;;32.04;34.84
57801;BME280;43627;42.728;23.256;2022-07-04T12:28:17;95049.00;;;31.13;35.99
57801;BME280;43627;42.728;23.256;2022-07-04T12:33:27;95028.97;;;32.45;35.28
57801;BME280;43627;42.728;23.256;2022-07-04T12:35:59;95029.66;;;32.33;35.31
57801;BME280;43627;42.728;23.256;2022-07-04T12:41:00;95032.19;;;31.65;36.05
57801;BME280;43627;42.728;23.256;2022-07-04T12:48:52;95037.69;;;30.82;37.22
57801;BME280;43627;42.728;23.256;2022-07-04T12:51:33;95042.13;;;30.85;38.03
57801;BME280;43627;42.728;23.256;2022-07-04T12:54:08;95034.53;;;30.87;38.61
57801;BME280;43627;42.728;23.256;2022-07-04T12:56:36;95031.63;;;31.57;36.37
57801;BME280;43627;42.728;23.256;2022-07-04T12:59:22;95022.06;;;32.36;36.51
57801;BME280;43627;42.728;23.256;2022-07-04T13:01:49;95030.09;;;32.96;34.38
57801;BME280;43627;42.728;23.256;2022-07-04T13:04:16;95014.16;;;32.56;34.77
57801;BME280;43627;42.728;23.256;2022-07-04T13:06:43;95026.28;;;32.25;35.74
57801;BME280;43627;42.728;23.256;2022-07-04T13:09:10;95011.44;;;32.58;34.98
57801;BME280;43627;42.728;23.256;2022-07-04T13:11:37;95016.47;;;32.48;34.60
57801;BME280;43627;42.728;23.256;2022-07-04T13:14:23;95013.03;;;31.64;35.30
57801;BME280;43627;42.728;23.256;2022-07-04T13:16:49;95025.03;;;31.43;35.83
57801;BME280;43627;42.728;23.256;2022-07-04T13:19:16;95009.53;;;30.82;35.95
57801;BME280;43627;42.728;23.256;2022-07-04T13:21:44;95000.06;;;30.67;40.57
57801;BME280;43627;42.728;23.256;2022-07-04T13:24:12;95007.00;;;31.17;37.25
57801;BME280;43627;42.728;23.256;2022-07-04T13:26:39;95008.69;;;31.10;37.50
57801;BME280;43627;42.728;23.256;2022-07-04T13:29:07;95006.41;;;30.78;38.73
57801;BME280;43627;42.728;23.256;2022-07-04T13:31:38;95007.91;;;30.79;39.11
57801;BME280;43627;42.728;23.256;2022-07-04T13:34:05;95009.91;;;30.97;38.62
57801;BME280;43627;42.728;23.256;2022-07-04T13:36:31;95005.41;;;31.14;37.01
57801;BME280;43627;42.728;23.256;2022-07-04T13:38:58;94999.63;;;31.21;36.96
57801;BME280;43627;42.728;23.256;2022-07-04T13:41:32;95002.28;;;31.19;36.15